createdAt,value
2018-10-11T00:00:01.250Z,47.45
2018-10-11T00:02:30.291Z,47.75
2018-10-11T00:04:59.346Z,47.88
2018-10-11T00:07:28.400Z,47.56
2018-10-11T00:09:57.475Z,47.60
2018-10-11T00:12:26.522Z,47.93
2018-10-11T00:14:55.625Z,47.90
2018-10-11T00:17:24.671Z,47.82
2018-10-11T00:19:54.057Z,48.15
2018-10-11T00:22:23.480Z,47.82
2018-10-11T00:24:52.544Z,48.06
2018-10-11T00:27:21.704Z,48.05
2018-10-11T00:29:50.764Z,47.76
2018-10-11T00:32:19.907Z,47.75
2018-10-11T00:34:48.974Z,48.24
2018-10-11T00:37:18.049Z,48.30
2018-10-11T00:39:47.342Z,48.16
2018-10-11T00:42:16.549Z,48.26
2018-10-11T00:44:45.643Z,48.25
2018-10-11T00:47:14.739Z,47.91
2018-10-11T00:49:43.835Z,48.18
2018-10-11T00:52:12.925Z,48.27
2018-10-11T00:54:42.052Z,48.15
2018-10-11T00:57:11.150Z,48.16
2018-10-11T00:59:40.319Z,48.23
2018-10-11T01:02:09.478Z,48.03
2018-10-11T01:04:38.604Z,48.51
2018-10-11T01:07:07.656Z,48.35
2018-10-11T01:09:36.727Z,48.10
2018-10-11T01:12:06.005Z,48.08
2018-10-11T01:14:35.098Z,48.48
2018-10-11T01:17:04.204Z,48.34
2018-10-11T01:19:33.271Z,48.26
2018-10-11T01:22:02.396Z,48.62
2018-10-11T01:24:31.563Z,48.44
2018-10-11T01:27:00.676Z,48.26
2018-10-11T01:29:29.837Z,48.73
2018-10-11T01:31:59.086Z,48.50
2018-10-11T01:34:28.399Z,48.83
2018-10-11T01:36:57.455Z,48.89
2018-10-11T01:39:26.491Z,48.46
2018-10-11T01:41:55.587Z,48.61
2018-10-11T01:44:24.675Z,48.39
2018-10-11T01:46:54.107Z,48.45
2018-10-11T01:49:23.207Z,48.54
2018-10-11T01:51:52.264Z,48.60
2018-10-11T01:54:21.363Z,48.67
2018-10-11T01:56:50.465Z,48.67
2018-10-11T01:59:19.793Z,48.92
2018-10-11T02:01:48.867Z,48.76
2018-10-11T02:04:17.983Z,48.97
2018-10-11T02:06:47.017Z,48.95
2018-10-11T02:09:16.137Z,48.59
2018-10-11T02:11:45.206Z,48.66
2018-10-11T02:14:14.331Z,48.97
2018-10-11T02:16:43.597Z,48.85
2018-10-11T02:19:12.719Z,49.08
2018-10-11T02:21:41.759Z,48.71
2018-10-11T02:24:11.419Z,49.07
2018-10-11T02:26:45.859Z,48.87
2018-10-11T02:29:20.495Z,49.18
2018-10-11T02:31:49.606Z,48.86
2018-10-11T02:34:18.951Z,49.13
2018-10-11T02:36:48.066Z,49.01
2018-10-11T02:39:17.175Z,48.94
2018-10-11T02:41:46.271Z,48.98
2018-10-11T02:44:15.487Z,49.02
2018-10-11T02:46:44.567Z,49.05
2018-10-11T02:49:13.644Z,49.91
2018-10-11T02:51:42.705Z,50.57
2018-10-11T02:54:11.786Z,50.94
2018-10-11T02:56:41.476Z,51.58
2018-10-11T02:59:21.633Z,51.62
2018-10-11T03:01:51.234Z,51.81
2018-10-11T03:04:20.329Z,52.19
2018-10-11T03:06:49.638Z,51.79
2018-10-11T03:09:18.712Z,51.55
2018-10-11T03:11:48.056Z,51.86
2018-10-11T03:14:17.162Z,51.40
2018-10-11T03:16:46.195Z,51.25
2018-10-11T03:19:15.311Z,51.30
2018-10-11T03:21:44.406Z,51.06
2018-10-11T03:24:13.553Z,51.02
2018-10-11T03:26:42.804Z,51.14
2018-10-11T03:29:11.908Z,51.21
2018-10-11T03:31:40.986Z,51.25
2018-10-11T03:34:10.042Z,51.05
2018-10-11T03:36:39.110Z,51.12
2018-10-11T03:39:08.335Z,51.21
2018-10-11T03:41:37.384Z,51.04
2018-10-11T03:44:06.672Z,51.20
2018-10-11T03:46:41.717Z,50.81
2018-10-11T03:49:16.347Z,50.89
2018-10-11T03:51:45.548Z,51.12
2018-10-11T03:54:14.662Z,51.21
2018-10-11T03:56:43.932Z,51.56
2018-10-11T03:59:13.320Z,50.89
2018-10-11T04:01:42.434Z,51.32
2018-10-11T04:04:11.522Z,50.78
2018-10-11T04:06:40.574Z,51.02
2018-10-11T04:09:09.712Z,50.71
2018-10-11T04:11:38.842Z,50.91
2018-10-11T04:14:07.803Z,50.81
2018-10-11T04:16:36.899Z,50.68
2018-10-11T04:19:06.514Z,50.71
2018-10-11T04:21:35.549Z,50.77
2018-10-11T04:24:04.604Z,51.12
2018-10-11T04:26:33.691Z,50.76
2018-10-11T04:29:02.903Z,50.73
2018-10-11T04:31:32.004Z,50.69
2018-10-11T04:34:01.068Z,50.55
2018-10-11T04:36:30.127Z,50.34
2018-10-11T04:38:59.239Z,50.70
2018-10-11T04:41:28.383Z,50.38
2018-10-11T04:43:57.535Z,50.91
2018-10-11T04:46:26.658Z,50.71
2018-10-11T04:48:55.760Z,50.50
2018-10-11T04:51:24.891Z,50.70
2018-10-11T04:53:54.951Z,50.84
2018-10-11T04:56:25.154Z,50.27
2018-10-11T04:58:54.464Z,50.35
2018-10-11T05:01:23.511Z,50.70
2018-10-11T05:03:52.795Z,50.45
2018-10-11T05:06:21.890Z,50.35
2018-10-11T05:08:51.083Z,50.57
2018-10-11T05:11:20.504Z,50.33
2018-10-11T05:13:50.782Z,50.45
2018-10-11T05:16:19.950Z,50.35
2018-10-11T05:18:53.250Z,50.36
2018-10-11T05:21:22.653Z,50.12
2018-10-11T05:23:51.883Z,50.06
2018-10-11T05:26:21.139Z,50.37
2018-10-11T05:28:50.202Z,50.00
2018-10-11T05:31:19.252Z,50.15
2018-10-11T05:33:48.431Z,50.21
2018-10-11T05:36:17.458Z,50.09
2018-10-11T05:38:46.551Z,50.36
2018-10-11T05:41:15.703Z,50.27
2018-10-11T05:43:44.787Z,50.42
2018-10-11T05:46:26.683Z,50.45
2018-10-11T05:48:56.855Z,50.07
2018-10-11T05:51:26.275Z,50.36
2018-10-11T05:53:56.887Z,50.26
2018-10-11T05:56:27.936Z,50.10
2018-10-11T05:58:57.789Z,49.64
2018-10-11T06:01:27.003Z,49.95
2018-10-11T06:03:56.955Z,49.88
2018-10-11T06:06:26.136Z,49.81
2018-10-11T06:09:01.582Z,49.73
2018-10-11T06:11:30.647Z,49.23
2018-10-11T06:13:59.691Z,49.57
2018-10-11T06:16:28.835Z,49.84
2018-10-11T06:18:57.941Z,49.84
2018-10-11T06:21:27.382Z,49.43
2018-10-11T06:23:56.631Z,49.71
2018-10-11T06:26:25.737Z,49.75
2018-10-11T06:28:54.811Z,49.62
2018-10-11T06:31:23.915Z,49.33
2018-10-11T06:33:53.125Z,49.50
2018-10-11T06:36:22.676Z,49.35
2018-10-11T06:38:52.296Z,49.79
2018-10-11T06:41:21.421Z,49.87
2018-10-11T06:43:50.463Z,49.45
2018-10-11T06:46:19.616Z,49.63
2018-10-11T06:48:48.660Z,49.28
2018-10-11T06:51:17.813Z,49.71
2018-10-11T06:53:47.119Z,49.44
2018-10-11T06:56:16.191Z,49.42
2018-10-11T06:58:45.330Z,49.72
2018-10-11T07:01:14.435Z,49.49
2018-10-11T07:03:43.511Z,49.66
2018-10-11T07:06:12.670Z,49.47
2018-10-11T07:08:41.730Z,49.53
2018-10-11T07:11:10.835Z,49.21
2018-10-11T07:13:40.129Z,49.36
2018-10-11T07:16:09.398Z,49.32
2018-10-11T07:18:38.774Z,49.21
2018-10-11T07:21:07.967Z,49.33
2018-10-11T07:23:37.357Z,49.40
2018-10-11T07:26:06.658Z,49.65
2018-10-11T07:28:35.977Z,49.66
2018-10-11T07:31:05.191Z,49.36
2018-10-11T07:33:34.420Z,49.34
2018-10-11T07:36:03.831Z,49.52
2018-10-11T07:38:33.290Z,49.60
2018-10-11T07:41:02.602Z,49.49
2018-10-11T07:43:32.385Z,49.37
2018-10-11T07:46:01.650Z,50.01
2018-10-11T07:48:31.004Z,49.94
2018-10-11T07:51:00.418Z,50.05
2018-10-11T07:53:29.816Z,50.26
2018-10-11T07:55:59.024Z,50.13
2018-10-11T07:58:28.271Z,50.01
2018-10-11T08:00:57.559Z,49.94
2018-10-11T08:03:27.015Z,49.89
2018-10-11T08:05:56.752Z,49.75
2018-10-11T08:08:26.306Z,49.78
2018-10-11T08:10:56.064Z,50.09
2018-10-11T08:13:25.329Z,50.00
2018-10-11T08:15:55.000Z,50.15
2018-10-11T08:18:24.502Z,49.72
2018-10-11T08:20:53.716Z,49.94
2018-10-11T08:23:22.945Z,50.10
2018-10-11T08:25:52.471Z,50.20
2018-10-11T08:28:21.735Z,50.02
2018-10-11T08:30:51.115Z,50.33
2018-10-11T08:33:20.603Z,50.14
2018-10-11T08:35:49.877Z,50.05
2018-10-11T08:38:19.467Z,50.12
2018-10-11T08:40:48.835Z,50.30
2018-10-11T08:43:18.117Z,49.97
2018-10-11T08:45:47.388Z,49.85
2018-10-11T08:48:16.973Z,50.34
2018-10-11T08:50:46.509Z,50.12
2018-10-11T08:53:16.055Z,50.11
2018-10-11T08:55:45.749Z,49.99
2018-10-11T08:58:15.186Z,50.27
2018-10-11T09:00:44.497Z,49.98
2018-10-11T09:03:13.759Z,49.98
2018-10-11T09:05:43.047Z,50.16
2018-10-11T09:08:12.221Z,50.05
2018-10-11T09:10:41.658Z,49.67
2018-10-11T09:13:10.719Z,49.74
2018-10-11T09:15:39.850Z,49.74
2018-10-11T09:18:09.011Z,50.08
2018-10-11T09:20:38.066Z,50.09
2018-10-11T09:23:07.384Z,49.76
2018-10-11T09:25:36.650Z,49.77
2018-10-11T09:28:05.744Z,49.70
2018-10-11T09:30:34.810Z,50.17
2018-10-11T09:33:03.950Z,49.78
2018-10-11T09:35:33.108Z,49.98
2018-10-11T09:38:02.168Z,49.76
2018-10-11T09:40:31.307Z,49.95
2018-10-11T09:43:00.397Z,49.87
2018-10-11T09:45:29.451Z,49.99
2018-10-11T09:47:58.547Z,50.15
2018-10-11T09:50:27.703Z,49.90
2018-10-11T09:52:56.953Z,49.89
2018-10-11T09:55:26.119Z,49.97
2018-10-11T09:57:55.189Z,49.99
2018-10-11T10:00:29.824Z,49.77
2018-10-11T10:02:59.020Z,49.68
2018-10-11T10:05:28.399Z,49.57
2018-10-11T10:07:57.495Z,50.01
2018-10-11T10:10:26.724Z,50.01
2018-10-11T10:12:55.811Z,50.24
2018-10-11T10:15:24.916Z,49.96
2018-10-11T10:17:54.264Z,49.82
2018-10-11T10:20:23.342Z,50.32
2018-10-11T10:22:52.476Z,49.71
2018-10-11T10:25:21.547Z,50.10
2018-10-11T10:27:50.674Z,49.85
2018-10-11T10:30:25.039Z,49.44
2018-10-11T10:32:54.318Z,49.98
2018-10-11T10:35:23.514Z,49.73
2018-10-11T10:37:52.575Z,49.94
2018-10-11T10:40:21.686Z,49.70
2018-10-11T10:42:50.755Z,49.66
2018-10-11T10:45:19.894Z,49.94
2018-10-11T10:47:49.200Z,49.61
2018-10-11T10:50:18.247Z,49.42
2018-10-11T10:52:47.389Z,49.56
2018-10-11T10:55:16.431Z,49.77
2018-10-11T10:57:45.484Z,50.17
2018-10-11T11:00:14.542Z,50.42
2018-10-11T11:02:43.666Z,50.43
2018-10-11T11:05:12.850Z,50.53
2018-10-11T11:07:41.947Z,50.38
2018-10-11T11:10:11.031Z,50.31
2018-10-11T11:12:45.565Z,50.20
2018-10-11T11:15:20.057Z,50.54
2018-10-11T11:17:54.724Z,50.30
2018-10-11T11:20:23.831Z,50.37
2018-10-11T11:22:52.978Z,50.57
2018-10-11T11:25:22.213Z,50.68
2018-10-11T11:27:51.472Z,50.52
2018-10-11T11:30:20.533Z,50.46
2018-10-11T11:32:49.639Z,50.66
2018-10-11T11:35:18.745Z,50.40
2018-10-11T11:37:47.820Z,50.67
2018-10-11T11:40:16.974Z,50.57
2018-10-11T11:42:46.028Z,50.31
2018-10-11T11:45:15.188Z,50.28
2018-10-11T11:47:44.335Z,50.04
2018-10-11T11:50:13.505Z,50.26
2018-10-11T11:52:42.660Z,50.51
2018-10-11T11:55:11.875Z,50.77
2018-10-11T11:57:41.088Z,50.50
2018-10-11T12:00:10.531Z,50.54
2018-10-11T12:02:39.970Z,50.66
2018-10-11T12:05:09.326Z,50.72
2018-10-11T12:07:38.695Z,49.95
2018-10-11T12:10:07.875Z,50.43
2018-10-11T12:12:54.052Z,50.59
2018-10-11T12:15:24.815Z,50.61
2018-10-11T12:17:56.154Z,50.70
2018-10-11T12:20:26.445Z,50.67
2018-10-11T12:22:56.713Z,50.48
2018-10-11T12:25:26.129Z,50.28
2018-10-11T12:27:55.157Z,50.19
2018-10-11T12:30:24.300Z,50.25
2018-10-11T12:32:53.538Z,50.47
2018-10-11T12:35:23.608Z,50.04
2018-10-11T12:37:52.945Z,50.29
2018-10-11T12:40:22.611Z,50.18
2018-10-11T12:42:51.238Z,50.24
2018-10-11T12:45:20.511Z,50.28
2018-10-11T12:47:49.756Z,49.96
2018-10-11T12:50:18.936Z,50.35
2018-10-11T12:52:48.100Z,50.47
2018-10-11T12:55:17.719Z,49.89
2018-10-11T12:57:46.920Z,50.59
2018-10-11T13:00:16.796Z,50.62
2018-10-11T13:02:45.948Z,50.85
2018-10-11T13:05:15.246Z,50.70
2018-10-11T13:07:44.378Z,50.70
2018-10-11T13:10:13.619Z,50.52
2018-10-11T13:12:42.683Z,50.27
2018-10-11T13:15:11.808Z,49.82
2018-10-11T13:17:43.385Z,50.39
2018-10-11T13:20:10.312Z,50.41
2018-10-11T13:22:39.473Z,50.01
2018-10-11T13:25:08.569Z,50.15
2018-10-11T13:27:37.707Z,49.96
2018-10-11T13:30:07.439Z,49.80
2018-10-11T13:32:36.486Z,50.05
2018-10-11T13:35:05.908Z,49.67
2018-10-11T13:37:35.174Z,49.82
2018-10-11T13:40:04.610Z,49.97
2018-10-11T13:42:34.086Z,49.80
2018-10-11T13:45:03.245Z,49.95
2018-10-11T13:47:35.292Z,49.60
2018-10-11T13:50:01.675Z,49.98
2018-10-11T13:52:30.915Z,49.41
2018-10-11T13:55:00.023Z,49.70
2018-10-11T13:57:31.125Z,49.48
2018-10-11T13:59:58.524Z,49.34
2018-10-11T14:02:27.579Z,49.23
2018-10-11T14:04:56.643Z,49.52
2018-10-11T14:07:25.834Z,49.34
2018-10-11T14:09:54.888Z,49.23
2018-10-11T14:12:24.021Z,49.57
2018-10-11T14:14:53.101Z,49.99
2018-10-11T14:17:22.275Z,50.19
2018-10-11T14:19:51.434Z,50.31
2018-10-11T14:22:20.579Z,49.57
2018-10-11T14:24:49.693Z,49.45
2018-10-11T14:27:18.847Z,49.61
2018-10-11T14:29:48.130Z,49.28
2018-10-11T14:32:17.236Z,49.30
2018-10-11T14:34:46.389Z,49.79
2018-10-11T14:37:15.759Z,49.84
2018-10-11T14:39:44.988Z,50.17
2018-10-11T14:42:14.284Z,49.78
2018-10-11T14:44:43.480Z,49.41
2018-10-11T14:47:12.774Z,49.97
2018-10-11T14:49:41.889Z,49.54
2018-10-11T14:52:10.940Z,49.58
2018-10-11T14:54:40.270Z,49.45
2018-10-11T14:57:14.848Z,49.18
2018-10-11T14:59:49.645Z,48.68
2018-10-11T15:02:18.960Z,49.24
2018-10-11T15:04:48.118Z,49.42
2018-10-11T15:07:17.270Z,48.64
2018-10-11T15:09:46.607Z,48.85
2018-10-11T15:12:15.893Z,48.07
2018-10-11T15:14:45.032Z,48.93
2018-10-11T15:17:14.233Z,49.09
2018-10-11T15:19:43.425Z,49.31
2018-10-11T15:22:12.608Z,48.98
2018-10-11T15:24:41.760Z,49.04
2018-10-11T15:27:10.980Z,49.16
2018-10-11T15:29:40.068Z,48.83
2018-10-11T15:32:09.387Z,49.62
2018-10-11T15:34:38.518Z,49.32
2018-10-11T15:37:07.717Z,48.91
2018-10-11T15:39:36.812Z,49.13
2018-10-11T15:42:06.393Z,49.52
2018-10-11T15:44:35.705Z,49.85
2018-10-11T15:47:04.919Z,50.02
2018-10-11T15:49:34.104Z,50.17
2018-10-11T15:52:03.217Z,49.87
2018-10-11T15:54:32.559Z,49.71
2018-10-11T15:57:01.688Z,49.16
2018-10-11T15:59:30.776Z,48.90
2018-10-11T16:01:59.972Z,48.57
2018-10-11T16:04:29.092Z,49.48
2018-10-11T16:06:58.309Z,48.78
2018-10-11T16:09:27.488Z,49.31
2018-10-11T16:11:56.848Z,48.87
2018-10-11T16:14:26.127Z,49.08
2018-10-11T16:16:55.167Z,48.79
2018-10-11T16:19:24.348Z,49.51
2018-10-11T16:21:53.696Z,49.31
2018-10-11T16:24:22.969Z,49.02
2018-10-11T16:26:52.068Z,49.29
2018-10-11T16:29:21.226Z,49.11
2018-10-11T16:31:50.351Z,49.32
2018-10-11T16:34:19.504Z,49.04
2018-10-11T16:36:48.615Z,49.11
2018-10-11T16:39:17.835Z,49.24
2018-10-11T16:41:47.123Z,48.91
2018-10-11T16:44:16.280Z,48.73
2018-10-11T16:46:45.420Z,49.05
2018-10-11T16:49:14.481Z,49.26
2018-10-11T16:51:43.658Z,48.54
2018-10-11T16:54:12.742Z,49.27
2018-10-11T16:56:41.916Z,49.27
2018-10-11T16:59:10.976Z,49.13
2018-10-11T17:01:40.130Z,49.42
2018-10-11T17:04:09.280Z,49.14
2018-10-11T17:06:38.551Z,49.29
2018-10-11T17:09:09.267Z,48.74
2018-10-11T17:11:38.527Z,48.75
2018-10-11T17:14:07.621Z,49.24
2018-10-11T17:16:36.859Z,48.33
2018-10-11T17:19:06.079Z,48.08
2018-10-11T17:21:35.230Z,48.05
2018-10-11T17:24:04.440Z,48.28
2018-10-11T17:26:33.559Z,48.12
2018-10-11T17:29:02.606Z,47.97
2018-10-11T17:31:31.697Z,48.10
2018-10-11T17:34:00.826Z,48.51
2018-10-11T17:36:30.932Z,48.21
2018-10-11T17:39:00.159Z,48.27
2018-10-11T17:41:29.240Z,48.56
2018-10-11T17:43:58.391Z,48.12
2018-10-11T17:46:27.651Z,48.22
2018-10-11T17:48:56.867Z,48.19
2018-10-11T17:51:25.970Z,48.30
2018-10-11T17:53:55.059Z,47.86
2018-10-11T17:56:24.123Z,48.08
2018-10-11T17:58:53.238Z,48.23
2018-10-11T18:01:22.320Z,48.47
2018-10-11T18:03:51.412Z,48.61
2018-10-11T18:06:20.634Z,48.25
2018-10-11T18:08:49.701Z,47.66
2018-10-11T18:11:18.803Z,48.21
2018-10-11T18:13:48.038Z,47.92
2018-10-11T18:16:17.260Z,47.97
2018-10-11T18:18:46.502Z,48.05
2018-10-11T18:21:15.590Z,48.02
2018-10-11T18:23:44.722Z,48.31
2018-10-11T18:26:13.786Z,48.44
2018-10-11T18:28:42.924Z,48.48
2018-10-11T18:31:11.991Z,48.07
2018-10-11T18:33:41.044Z,48.53
2018-10-11T18:36:10.130Z,48.10
2018-10-11T18:38:39.198Z,48.11
2018-10-11T18:41:08.399Z,48.33
2018-10-11T18:43:37.702Z,48.07
2018-10-11T18:46:06.770Z,48.14
2018-10-11T18:48:35.857Z,48.37
2018-10-11T18:51:05.070Z,48.28
2018-10-11T18:53:34.242Z,48.14
2018-10-11T18:56:03.301Z,48.16
2018-10-11T18:58:32.474Z,48.23
2018-10-11T19:01:01.618Z,48.04
2018-10-11T19:03:30.774Z,48.26
2018-10-11T19:05:59.931Z,48.25
2018-10-11T19:08:29.617Z,48.63
2018-10-11T19:10:59.065Z,48.00
2018-10-11T19:13:28.151Z,47.90
2018-10-11T19:15:57.360Z,48.18
2018-10-11T19:18:26.475Z,48.05
2018-10-11T19:20:55.663Z,48.62
2018-10-11T19:23:24.951Z,48.52
2018-10-11T19:25:54.111Z,48.46
2018-10-11T19:28:23.257Z,48.04
2018-10-11T19:30:52.457Z,48.50
2018-10-11T19:33:21.683Z,48.35
2018-10-11T19:35:51.207Z,48.54
2018-10-11T19:38:20.420Z,48.27
2018-10-11T19:40:49.559Z,48.26
2018-10-11T19:43:18.830Z,48.68
2018-10-11T19:45:48.065Z,48.92
2018-10-11T19:48:17.182Z,48.91
2018-10-11T19:50:46.464Z,48.76
2018-10-11T19:53:15.513Z,48.88
2018-10-11T19:55:44.650Z,48.72
2018-10-11T19:58:13.745Z,48.87
2018-10-11T20:00:42.826Z,48.96
2018-10-11T20:03:12.016Z,48.65
2018-10-11T20:05:41.137Z,48.79
2018-10-11T20:08:10.317Z,48.65
2018-10-11T20:10:39.561Z,48.90
2018-10-11T20:13:08.698Z,48.76
2018-10-11T20:15:37.808Z,49.04
2018-10-11T20:18:06.875Z,49.10
2018-10-11T20:20:36.029Z,49.26
2018-10-11T20:23:05.106Z,49.45
2018-10-11T20:25:34.257Z,49.19
2018-10-11T20:28:03.393Z,49.13
2018-10-11T20:30:32.472Z,49.26
2018-10-11T20:33:01.608Z,48.78
2018-10-11T20:35:30.803Z,49.02
2018-10-11T20:37:59.896Z,49.13
2018-10-11T20:40:29.018Z,48.89
2018-10-11T20:42:58.088Z,49.30
2018-10-11T20:45:27.165Z,49.08
2018-10-11T20:47:56.307Z,49.46
2018-10-11T20:50:25.508Z,48.96
2018-10-11T20:52:54.578Z,49.04
2018-10-11T20:55:23.736Z,49.17
2018-10-11T20:57:52.812Z,49.34
2018-10-11T21:00:21.916Z,49.08
2018-10-11T21:02:50.997Z,48.69
2018-10-11T21:05:20.136Z,48.83
2018-10-11T21:07:49.225Z,49.07
2018-10-11T21:10:18.444Z,48.94
2018-10-11T21:12:47.583Z,48.91
2018-10-11T21:15:16.633Z,48.64
2018-10-11T21:17:45.842Z,48.57
2018-10-11T21:20:20.378Z,48.60
2018-10-11T21:22:51.201Z,48.45
2018-10-11T21:25:20.264Z,48.74
2018-10-11T21:27:49.353Z,48.63
2018-10-11T21:30:18.475Z,49.04
2018-10-11T21:32:47.536Z,48.77
2018-10-11T21:35:16.667Z,48.54
2018-10-11T21:37:45.723Z,49.22
2018-10-11T21:40:14.789Z,48.80
2018-10-11T21:42:44.058Z,48.56
2018-10-11T21:45:13.137Z,49.00
2018-10-11T21:47:42.199Z,48.68
2018-10-11T21:50:11.323Z,48.91
2018-10-11T21:52:40.451Z,49.22
2018-10-11T21:55:09.704Z,49.05
2018-10-11T21:57:38.782Z,49.69
2018-10-11T22:00:08.400Z,49.72
2018-10-11T22:02:37.502Z,49.89
2018-10-11T22:05:06.896Z,49.73
2018-10-11T22:07:35.990Z,49.97
2018-10-11T22:10:05.457Z,49.86
2018-10-11T22:12:34.633Z,49.85
2018-10-11T22:15:03.862Z,50.00
2018-10-11T22:17:33.033Z,49.73
2018-10-11T22:21:05.027Z,49.97
2018-10-11T22:23:34.155Z,50.09
2018-10-11T22:26:03.299Z,49.91
2018-10-11T22:28:32.394Z,49.70
2018-10-11T22:31:01.473Z,49.72
2018-10-11T22:33:30.542Z,50.37
2018-10-11T22:35:59.640Z,50.09
2018-10-11T22:38:28.753Z,50.44
2018-10-11T22:40:57.844Z,50.31
2018-10-11T22:43:27.969Z,49.65
2018-10-11T22:45:57.090Z,50.06
2018-10-11T22:48:26.387Z,50.36
2018-10-11T22:50:55.574Z,50.46
2018-10-11T22:53:24.678Z,50.39
2018-10-11T22:55:53.755Z,50.52
2018-10-11T22:58:22.802Z,50.66
2018-10-11T23:00:51.994Z,50.77
2018-10-11T23:03:21.080Z,50.28
2018-10-11T23:05:51.015Z,50.63
2018-10-11T23:08:20.208Z,50.67
2018-10-11T23:10:49.337Z,50.93
2018-10-11T23:13:18.410Z,50.89
2018-10-11T23:15:47.512Z,50.74
2018-10-11T23:18:16.817Z,50.85
2018-10-11T23:20:45.903Z,50.65
2018-10-11T23:23:14.980Z,50.97
2018-10-11T23:25:44.054Z,51.13
2018-10-11T23:28:13.275Z,50.82
2018-10-11T23:30:42.460Z,51.20
2018-10-11T23:33:11.560Z,51.08
2018-10-11T23:35:40.617Z,51.34
2018-10-11T23:38:09.650Z,51.08
2018-10-11T23:40:39.858Z,51.51
2018-10-11T23:43:09.008Z,51.35
2018-10-11T23:45:38.158Z,51.54
2018-10-11T23:48:07.277Z,51.70
2018-10-11T23:50:36.370Z,52.04
2018-10-11T23:53:05.434Z,52.06
2018-10-11T23:55:34.516Z,52.17
2018-10-11T23:58:04.159Z,52.22
